Edsbyn, Sweden
Current Conditions -  °F | °C
As of 4:50 PM on Thursday 27 Nov 2014 (Local Time) from ESSD Reporting Station
Overcast Overcast  
Wind Chill: 27°   Ceiling: 100
Heat Index: 27°   Visibility: 2.3mi
Dew Point: 27°   Wind: 0mph
Humidity: 100%   Direction: NA
Pressure: 30.27"   Gusts: NA
Location:  61.38°N, 15.82°E
Report Text: ESSD 271550Z 00000KT 3800 OVC001 M03/M03 Q1025
Loading
Personal Weather Stations






























Interactive Weather Map New forecast layout! Learn more

10-Day Weather Forecast

Advertisements
Track Severe Weather on mobile